Time;durP1;ratioP1;P1;durP2;ratioP2;P2;SDS_P1;SDS_P2;PMS_P1;PMS_P2;Temp;Humidity;BMP_temperature;BMP_pressure;BME280_temperature;BME280_humidity;BME280_pressure;Samples;Min_cycle;Max_cycle;Signal;HPM_P1;HPM_P2
2022/11/01 04:00:58;;;;;;;3.25;1.42;;;20.80;54.30;;;;;;5580826;23;45777;-60
2022/11/01 04:03:24;;;;;;;1.50;1.40;;;20.80;54.40;;;;;;4841008;29;45442;-60
2022/11/01 04:05:49;;;;;;;1.70;1.40;;;20.80;54.40;;;;;;4834003;29;44958;-60
2022/11/01 04:08:15;;;;;;;1.48;1.38;;;20.80;54.30;;;;;;4855571;29;45425;-61
2022/11/01 04:10:43;;;;;;;1.85;1.67;;;20.80;54.20;;;;;;4855329;29;45903;-61
2022/11/01 04:13:09;;;;;;;1.85;1.50;;;20.90;54.20;;;;;;4852123;29;45255;-61
2022/11/01 04:21:17;;;;;;;2.20;1.60;;;20.90;54.00;;;;;;4841676;29;45777;-62
2022/11/01 04:23:43;;;;;;;3.72;1.42;;;20.90;54.10;;;;;;4813254;29;45016;-60
2022/11/01 04:26:13;;;;;;;1.98;1.50;;;20.90;54.00;;;;;;4823289;29;45972;-62
2022/11/01 04:28:39;;;;;;;1.65;1.50;;;21.00;54.10;;;;;;4839697;29;45142;-59
2022/11/01 04:31:05;;;;;;;3.03;1.38;;;21.00;54.00;;;;;;4816861;29;45453;-59
2022/11/01 04:33:31;;;;;;;2.17;1.70;;;20.90;54.00;;;;;;4817868;29;45261;-59
2022/11/01 04:35:56;;;;;;;2.22;1.50;;;20.90;54.00;;;;;;4850201;29;45489;-59
2022/11/01 04:38:22;;;;;;;1.73;1.42;;;20.90;54.10;;;;;;4836111;29;45617;-58
2022/11/01 04:40:47;;;;;;;1.70;1.60;;;20.90;54.20;;;;;;4837003;29;46732;-60
2022/11/01 04:43:14;;;;;;;1.52;1.40;;;20.90;54.20;;;;;;4829255;29;45032;-60
2022/11/01 04:45:39;;;;;;;1.75;1.58;;;20.90;54.20;;;;;;4832520;29;45122;-59
2022/11/01 04:48:06;;;;;;;1.90;1.65;;;20.90;54.20;;;;;;4846107;29;45540;-59
2022/11/01 04:50:32;;;;;;;3.45;1.65;;;20.90;54.20;;;;;;4847192;29;45727;-59
2022/11/01 04:52:58;;;;;;;1.40;1.30;;;20.90;54.20;;;;;;4843755;29;45243;-59
2022/11/01 04:55:25;;;;;;;1.90;1.65;;;20.80;54.10;;;;;;4828331;29;45732;-59
2022/11/01 04:57:51;;;;;;;2.75;1.83;;;20.80;54.10;;;;;;4831065;29;45551;-59
2022/11/01 05:00:17;;;;;;;1.58;1.48;;;20.90;54.20;;;;;;4846726;29;46107;-60
2022/11/01 05:02:42;;;;;;;1.63;1.52;;;20.90;54.30;;;;;;4832650;29;46371;-58
2022/11/01 05:05:09;;;;;;;2.15;1.67;;;20.80;54.10;;;;;;4850996;29;45892;-59
2022/11/01 05:07:35;;;;;;;2.20;1.60;;;20.80;54.10;;;;;;4830022;29;47090;-58
2022/11/01 05:10:01;;;;;;;1.50;1.40;;;20.90;54.20;;;;;;4832342;29;45543;-60
2022/11/01 05:12:26;;;;;;;2.40;1.67;;;20.80;54.20;;;;;;4831283;29;45282;-59
2022/11/01 05:14:52;;;;;;;1.88;1.67;;;20.80;54.20;;;;;;4826993;29;45707;-59
2022/11/01 05:17:18;;;;;;;3.65;1.50;;;20.80;54.10;;;;;;4849115;29;46420;-60
2022/11/01 05:19:43;;;;;;;1.90;1.75;;;20.80;54.10;;;;;;4833170;29;45379;-60
2022/11/01 05:22:09;;;;;;;2.30;1.55;;;20.80;54.20;;;;;;4853667;29;45615;-58
2022/11/01 05:24:35;;;;;;;4.85;1.60;;;20.80;54.20;;;;;;4833959;29;45796;-59
2022/11/01 05:27:00;;;;;;;1.90;1.65;;;20.80;54.10;;;;;;4833669;29;45427;-59
2022/11/01 05:29:26;;;;;;;1.90;1.50;;;20.80;54.20;;;;;;4851641;29;45842;-59
2022/11/01 05:31:52;;;;;;;1.90;1.48;;;20.80;54.20;;;;;;4831116;29;45455;-59
2022/11/01 05:34:18;;;;;;;1.67;1.33;;;20.80;54.10;;;;;;4832315;29;45502;-59
2022/11/01 05:36:43;;;;;;;1.60;1.50;;;20.80;54.20;;;;;;4832243;29;45776;-59
2022/11/01 05:39:09;;;;;;;1.85;1.45;;;20.80;54.20;;;;;;4853773;29;46083;-58
2022/11/01 05:41:35;;;;;;;2.30;1.70;;;20.80;54.10;;;;;;4832148;29;45655;-59
2022/11/01 05:44:00;;;;;;;1.40;1.30;;;20.80;54.20;;;;;;4852161;29;45409;-59
2022/11/01 05:46:26;;;;;;;1.67;1.30;;;20.80;54.80;;;;;;4847338;29;45685;-58
2022/11/01 05:48:52;;;;;;;1.70;1.50;;;20.80;54.20;;;;;;4852086;29;45332;-58
2022/11/01 05:51:17;;;;;;;1.50;1.35;;;20.80;54.20;;;;;;4851720;29;45620;-59
2022/11/01 05:53:43;;;;;;;1.63;1.48;;;20.80;54.20;;;;;;4834155;29;45747;-59
2022/11/01 05:56:09;;;;;;;2.72;1.65;;;20.70;54.20;;;;;;4834096;29;45075;-59
2022/11/01 05:58:34;;;;;;;2.08;1.60;;;20.70;54.20;;;;;;4851659;29;45298;-58
2022/11/01 06:01:04;;;;;;;2.03;1.60;;;20.70;54.10;;;;;;4833703;29;45573;-58
2022/11/01 06:03:30;;;;;;;1.58;1.40;;;20.70;54.10;;;;;;4833183;29;45586;-60
2022/11/01 06:05:56;;;;;;;1.40;1.30;;;20.80;54.10;;;;;;4853066;29;45272;-60
2022/11/01 06:08:21;;;;;;;1.90;1.38;;;20.70;54.10;;;;;;4846024;29;45291;-60
2022/11/01 06:10:47;;;;;;;1.60;1.50;;;20.70;54.10;;;;;;4890265;23;46262;-79
2022/11/01 06:13:12;;;;;;;1.67;1.48;;;20.70;54.20;;;;;;4793274;29;45601;-79
2022/11/01 06:15:38;;;;;;;2.35;1.75;;;20.70;54.20;;;;;;4797029;29;45433;-79
2022/11/01 06:18:04;;;;;;;1.98;1.40;;;20.70;54.20;;;;;;4811274;29;47439;-78
2022/11/01 06:20:30;;;;;;;2.25;1.45;;;20.70;54.20;;;;;;4811030;29;45305;-78
2022/11/01 06:22:56;;;;;;;1.67;1.52;;;20.70;54.20;;;;;;4829705;29;45757;-78
2022/11/01 06:25:22;;;;;;;1.50;1.40;;;20.70;54.20;;;;;;4810194;29;45554;-79
2022/11/01 06:27:47;;;;;;;1.70;1.60;;;20.70;54.20;;;;;;4828102;29;46921;-78
2022/11/01 06:30:13;;;;;;;1.45;1.30;;;20.70;54.20;;;;;;4829113;29;45284;-79
2022/11/01 06:32:39;;;;;;;1.50;1.40;;;20.70;54.20;;;;;;4840239;29;45106;-79
2022/11/01 06:35:05;;;;;;;1.60;1.50;;;20.70;54.20;;;;;;4818336;29;45640;-79
2022/11/01 06:37:31;;;;;;;1.90;1.40;;;20.70;54.20;;;;;;4830275;29;46881;-79
2022/11/01 06:39:56;;;;;;;1.75;1.65;;;20.70;54.20;;;;;;4821121;29;44789;-79
2022/11/01 06:42:22;;;;;;;1.80;1.60;;;20.70;54.20;;;;;;4813741;29;45211;-79
2022/11/01 06:44:47;;;;;;;2.10;1.48;;;20.70;54.20;;;;;;4826563;29;45950;-79
2022/11/01 06:47:13;;;;;;;1.60;1.13;;;20.70;54.20;;;;;;4817197;29;46831;-78
2022/11/01 06:49:39;;;;;;;1.33;1.23;;;20.60;54.10;;;;;;4816622;29;45350;-79
2022/11/01 06:52:04;;;;;;;1.50;1.38;;;20.60;54.10;;;;;;4800650;29;45332;-78
2022/11/01 06:54:30;;;;;;;1.73;1.60;;;20.60;54.20;;;;;;4803272;29;45578;-78
2022/11/01 06:56:56;;;;;;;1.73;1.35;;;20.60;54.20;;;;;;4798839;29;47169;-78
2022/11/01 06:59:22;;;;;;;1.70;1.60;;;20.60;54.10;;;;;;4816925;29;45277;-79
2022/11/01 07:01:48;;;;;;;2.00;1.42;;;20.60;54.30;;;;;;4801736;29;45822;-78
2022/11/01 07:04:13;;;;;;;1.80;1.58;;;20.60;54.10;;;;;;4808606;29;45570;-79
2022/11/01 07:06:39;;;;;;;1.73;1.42;;;20.60;54.20;;;;;;4847623;29;45622;-79
2022/11/01 07:09:04;;;;;;;1.65;1.55;;;20.60;54.20;;;;;;4831961;29;45254;-78
2022/11/01 07:11:30;;;;;;;1.92;1.50;;;20.60;54.20;;;;;;4824294;29;45761;-78
2022/11/01 07:13:56;;;;;;;2.50;1.40;;;20.60;54.20;;;;;;4823538;29;45309;-79
2022/11/01 07:16:21;;;;;;;2.17;1.60;;;20.60;54.20;;;;;;4830100;29;47411;-79
2022/11/01 07:18:47;;;;;;;1.52;1.42;;;20.60;54.10;;;;;;4819675;29;45694;-78
2022/11/01 07:21:12;;;;;;;1.92;1.67;;;20.60;54.10;;;;;;4843499;29;45536;-78
2022/11/01 07:23:38;;;;;;;2.05;1.52;;;20.60;54.20;;;;;;4808000;29;45292;-79
2022/11/01 07:26:04;;;;;;;1.73;1.48;;;20.60;54.20;;;;;;4843483;29;45493;-78
2022/11/01 07:28:30;;;;;;;1.50;1.40;;;20.60;54.10;;;;;;4829236;29;45479;-79
2022/11/01 07:30:55;;;;;;;2.25;1.48;;;20.60;54.10;;;;;;4824455;29;45297;-79
2022/11/01 07:33:21;;;;;;;2.15;1.50;;;20.60;54.20;;;;;;4796336;29;45268;-79
2022/11/01 07:35:47;;;;;;;1.70;1.60;;;20.60;54.10;;;;;;4804555;29;47056;-78
2022/11/01 07:38:12;;;;;;;1.65;1.55;;;20.60;54.10;;;;;;4836208;29;45612;-79
2022/11/01 07:40:38;;;;;;;2.28;1.65;;;20.60;54.10;;;;;;4819182;29;45243;-78
2022/11/01 07:43:04;;;;;;;1.80;1.65;;;20.60;54.10;;;;;;4814442;29;45995;-79
2022/11/01 07:45:31;;;;;;;1.52;1.42;;;20.60;54.10;;;;;;4842136;29;44945;-80
2022/11/01 07:48:01;;;;;;;1.70;1.45;;;20.60;54.10;;;;;;4811125;29;45304;-81
2022/11/01 07:50:30;;;;;;;1.75;1.65;;;20.60;54.10;;;;;;4829280;29;45396;-80
2022/11/01 07:53:00;;;;;;;1.70;1.60;;;20.60;54.20;;;;;;4845728;29;45493;-79
2022/11/01 07:55:26;;;;;;;1.67;1.58;;;20.60;54.10;;;;;;4844806;29;45116;-78
2022/11/01 07:57:52;;;;;;;2.00;1.63;;;20.60;54.10;;;;;;4828695;29;45647;-78
2022/11/01 08:00:17;;;;;;;1.45;1.15;;;20.60;54.10;;;;;;4834235;29;44660;-79
2022/11/01 08:02:43;;;;;;;1.42;1.33;;;20.60;54.10;;;;;;4834173;29;44758;-79
2022/11/01 08:05:16;;;;;;;1.30;1.20;;;20.60;54.10;;;;;;5025300;28;45171;-63
2022/11/01 08:07:42;;;;;;;1.63;1.25;;;20.60;54.10;;;;;;5030147;28;45706;-62
2022/11/01 08:10:09;;;;;;;1.50;1.40;;;20.60;54.10;;;;;;5013810;28;45763;-63
2022/11/01 08:12:35;;;;;;;1.50;1.40;;;20.60;54.10;;;;;;4997844;28;46422;-63
2022/11/01 08:15:04;;;;;;;1.55;1.45;;;20.60;54.10;;;;;;4982040;28;45263;-64
2022/11/01 08:17:29;;;;;;;1.60;1.50;;;20.50;54.20;;;;;;4999661;28;45406;-64
2022/11/01 08:19:55;;;;;;;1.65;1.52;;;20.50;54.20;;;;;;4994873;28;45290;-64
2022/11/01 08:22:20;;;;;;;1.65;1.27;;;20.50;54.20;;;;;;4993805;28;45106;-64
2022/11/01 08:24:46;;;;;;;1.80;1.60;;;20.50;54.30;;;;;;4993042;28;46774;-63
2022/11/01 08:27:11;;;;;;;1.63;1.38;;;20.50;54.30;;;;;;4988138;28;44724;-63
2022/11/01 08:29:37;;;;;;;1.65;1.50;;;20.50;54.30;;;;;;4994130;28;45446;-64
2022/11/01 08:32:03;;;;;;;1.50;1.40;;;20.50;54.30;;;;;;5000408;28;45810;-63
2022/11/01 08:34:31;;;;;;;1.90;1.58;;;20.50;54.30;;;;;;4993183;28;47326;-63
2022/11/01 08:36:57;;;;;;;2.05;1.42;;;20.50;54.20;;;;;;4993410;28;45613;-63
2022/11/01 08:39:23;;;;;;;1.65;1.55;;;20.50;54.10;;;;;;5001058;28;45735;-63
2022/11/01 08:41:49;;;;;;;1.38;1.20;;;20.60;54.10;;;;;;4994723;28;45801;-63
2022/11/01 08:44:16;;;;;;;1.85;1.50;;;20.50;54.10;;;;;;4988428;28;45610;-66
2022/11/01 08:46:42;;;;;;;1.42;1.33;;;20.60;54.10;;;;;;5010665;28;45718;-64
2022/11/01 08:49:12;;;;;;;1.75;1.38;;;20.60;54.10;;;;;;4994197;28;45694;-64
2022/11/01 08:51:37;;;;;;;1.42;1.17;;;20.60;54.10;;;;;;4993243;28;45840;-63
2022/11/01 08:54:04;;;;;;;1.50;1.40;;;20.60;54.10;;;;;;4993453;28;47190;-63
2022/11/01 08:56:29;;;;;;;1.35;1.25;;;20.60;54.10;;;;;;4993518;28;45742;-63
2022/11/01 08:58:55;;;;;;;2.08;1.50;;;20.60;54.00;;;;;;4994933;28;45940;-63
2022/11/01 09:01:22;;;;;;;1.60;1.40;;;20.60;54.50;;;;;;4995237;28;45079;-63
2022/11/01 09:03:48;;;;;;;1.63;1.35;;;20.60;54.00;;;;;;5014375;28;47415;-63
2022/11/01 09:06:14;;;;;;;1.58;1.23;;;20.60;54.00;;;;;;4991929;28;46559;-63
2022/11/01 09:08:40;;;;;;;1.67;1.23;;;20.60;53.90;;;;;;4991677;28;45252;-63
2022/11/01 09:11:05;;;;;;;1.33;1.23;;;20.60;53.90;;;;;;4993180;28;45197;-64
2022/11/01 09:13:32;;;;;;;1.50;1.40;;;20.60;53.90;;;;;;4990717;28;46220;-63
2022/11/01 09:15:57;;;;;;;1.98;1.73;;;20.60;53.90;;;;;;4983801;28;45369;-63
2022/11/01 09:18:23;;;;;;;1.20;1.10;;;20.60;53.90;;;;;;4981535;28;45505;-63
2022/11/01 09:20:53;;;;;;;1.30;1.20;;;20.60;53.90;;;;;;4973732;28;45735;-63
2022/11/01 09:23:19;;;;;;;1.98;1.75;;;20.60;53.90;;;;;;4978112;28;46067;-64
2022/11/01 09:25:44;;;;;;;1.83;1.45;;;20.60;53.90;;;;;;4977341;28;45361;-63
2022/11/01 09:28:10;;;;;;;1.45;1.30;;;20.60;53.90;;;;;;4981477;28;46205;-62
2022/11/01 09:30:36;;;;;;;1.95;1.40;;;20.60;53.90;;;;;;4980172;28;45358;-63
2022/11/01 09:33:04;;;;;;;2.65;1.52;;;20.60;53.90;;;;;;4979654;28;46845;-63
2022/11/01 09:35:30;;;;;;;1.40;1.15;;;20.60;53.90;;;;;;4984690;28;45335;-64
2022/11/01 09:38:00;;;;;;;1.75;1.40;;;20.60;53.90;;;;;;4982154;28;45331;-63
2022/11/01 09:40:26;;;;;;;1.13;1.10;;;20.60;53.90;;;;;;4979782;28;46425;-63
2022/11/01 09:42:52;;;;;;;1.40;1.30;;;20.60;53.90;;;;;;4980082;28;46315;-63
2022/11/01 09:45:19;;;;;;;1.83;1.23;;;20.60;54.00;;;;;;4978987;28;45732;-63
2022/11/01 09:47:47;;;;;;;1.42;1.23;;;20.60;53.90;;;;;;4978616;28;45376;-63
2022/11/01 09:50:22;;;;;;;1.60;1.45;;;20.60;53.90;;;;;;4984426;28;46337;-62
2022/11/01 09:52:49;;;;;;;1.80;1.70;;;20.60;53.90;;;;;;4980006;28;46985;-66
2022/11/01 09:55:15;;;;;;;1.77;1.33;;;20.60;53.90;;;;;;4980565;28;44863;-63
2022/11/01 09:57:55;;;;;;;1.63;1.30;;;20.60;53.90;;;;;;4979513;28;45754;-63
2022/11/01 10:00:20;;;;;;;1.75;1.23;;;20.60;53.90;;;;;;4968300;28;45675;-63
2022/11/01 10:02:49;;;;;;;2.38;1.75;;;20.60;53.90;;;;;;4975878;28;46244;-64
2022/11/01 10:05:36;;;;;;;1.25;1.13;;;20.60;53.90;;;;;;4978250;28;45283;-64
2022/11/01 10:08:19;;;;;;;2.28;1.45;;;20.60;53.90;;;;;;4981438;28;45376;-64
2022/11/01 10:11:10;;;;;;;1.30;1.20;;;20.60;53.90;;;;;;4980627;28;45766;-63
2022/11/01 10:14:03;;;;;;;1.58;1.27;;;20.60;53.90;;;;;;4982479;28;46063;-63
2022/11/01 10:16:36;;;;;;;1.88;1.70;;;20.60;53.90;;;;;;4979101;28;46278;-64
2022/11/01 10:19:20;;;;;;;1.58;1.40;;;20.60;53.90;;;;;;4985315;28;45559;-63
2022/11/01 10:21:55;;;;;;;1.35;1.25;;;20.60;53.90;;;;;;4962621;28;45287;-64
2022/11/01 10:24:42;;;;;;;1.20;1.10;;;20.60;53.90;;;;;;4986325;28;45331;-63
2022/11/01 10:27:25;;;;;;;1.60;1.50;;;20.60;53.90;;;;;;4977224;28;45417;-64
2022/11/01 10:30:06;;;;;;;1.60;1.40;;;20.60;53.90;;;;;;4980603;28;45745;-63
2022/11/01 10:32:34;;;;;;;1.52;1.38;;;20.60;53.90;;;;;;5010519;28;45468;-63
2022/11/01 10:35:05;;;;;;;1.30;1.10;;;20.60;53.90;;;;;;4976096;28;46159;-63
2022/11/01 10:37:43;;;;;;;1.40;1.30;;;20.60;53.90;;;;;;4978602;28;44977;-65
2022/11/01 10:40:22;;;;;;;2.05;1.58;;;20.60;53.90;;;;;;4978660;28;45319;-63
2022/11/01 10:42:48;;;;;;;1.42;1.33;;;20.60;53.90;;;;;;4968526;28;45348;-63
2022/11/01 10:45:17;;;;;;;1.17;1.10;;;20.60;53.90;;;;;;4978796;28;45982;-63
2022/11/01 10:47:44;;;;;;;1.17;1.08;;;20.60;53.90;;;;;;4982637;28;45152;-63
2022/11/01 10:50:19;;;;;;;1.38;1.27;;;20.60;53.90;;;;;;4962231;28;45405;-64
2022/11/01 10:52:49;;;;;;;1.30;1.20;;;20.60;53.90;;;;;;4985043;28;45700;-63
2022/11/01 10:55:18;;;;;;;1.67;1.13;;;20.60;53.90;;;;;;4977496;28;46319;-64
2022/11/01 10:57:50;;;;;;;1.45;1.30;;;20.60;53.90;;;;;;4977511;28;46482;-63
2022/11/01 11:00:17;;;;;;;1.65;1.55;;;20.60;53.90;;;;;;4969819;28;45707;-63
2022/11/01 11:03:32;;;;;;;1.50;1.40;;;20.60;53.90;;;;;;4978240;28;45334;-63
2022/11/01 11:06:06;;;;;;;1.45;1.35;;;20.70;53.80;;;;;;4978671;28;45304;-63
2022/11/01 11:08:32;;;;;;;1.23;1.10;;;20.70;53.70;;;;;;4977529;28;45742;-63
2022/11/01 11:11:01;;;;;;;1.33;1.17;;;20.70;53.60;;;;;;4972704;28;46277;-62
2022/11/01 11:13:27;;;;;;;1.73;1.30;;;20.80;53.60;;;;;;4975363;28;45709;-63
2022/11/01 11:15:59;;;;;;;1.20;1.10;;;20.80;53.50;;;;;;4977273;28;46249;-63
2022/11/01 11:18:41;;;;;;;1.30;1.20;;;20.80;53.40;;;;;;4981276;28;45840;-63
2022/11/01 11:21:10;;;;;;;1.58;1.30;;;20.80;53.40;;;;;;4965348;28;45103;-64
2022/11/01 11:23:43;;;;;;;1.35;1.25;;;20.80;53.30;;;;;;4978089;28;46080;-64
2022/11/01 11:26:12;;;;;;;;;;;20.90;53.30;;;;;;4980666;28;45342;-63
2022/11/01 11:28:42;;;;;;;1.63;1.17;;;20.90;53.40;;;;;;4978855;28;45638;-63
2022/11/01 11:31:12;;;;;;;1.50;1.23;;;20.90;54.00;;;;;;4976742;28;45780;-64
2022/11/01 11:33:38;;;;;;;1.27;1.17;;;20.90;53.30;;;;;;4979545;28;45216;-64
2022/11/01 11:36:04;;;;;;;1.30;1.20;;;20.90;53.40;;;;;;4986073;28;45987;-64
2022/11/01 11:38:44;;;;;;;1.77;1.48;;;21.00;53.40;;;;;;4978534;28;45352;-62
2022/11/01 11:41:11;;;;;;;1.52;1.38;;;21.00;53.30;;;;;;4981093;28;45849;-64
2022/11/01 11:43:39;;;;;;;1.52;1.30;;;21.00;53.30;;;;;;4977798;28;45305;-63
2022/11/01 11:46:14;;;;;;;1.08;1.08;;;21.00;53.30;;;;;;4974990;28;46927;-63
2022/11/01 11:49:03;;;;;;;1.40;1.30;;;21.10;53.30;;;;;;4979579;28;45824;-63
2022/11/01 11:51:29;;;;;;;1.20;1.10;;;21.00;53.30;;;;;;4980656;28;45621;-63
2022/11/01 11:54:37;;;;;;;1.15;1.05;;;21.00;53.30;;;;;;4989485;28;45369;-63
2022/11/01 11:57:21;;;;;;;1.38;1.13;;;21.10;53.30;;;;;;4954452;28;46852;-62
2022/11/01 11:59:59;;;;;;;1.98;1.63;;;21.10;53.40;;;;;;4977952;28;44968;-62
2022/11/01 12:02:26;;;;;;;6.13;1.20;;;21.10;53.30;;;;;;4974771;28;45483;-62
2022/11/01 12:05:02;;;;;;;1.42;1.25;;;21.10;53.30;;;;;;4967192;28;45315;-65
2022/11/01 12:07:38;;;;;;;1.42;1.23;;;21.10;53.30;;;;;;4973279;28;45991;-63
2022/11/01 12:10:05;;;;;;;1.30;1.17;;;21.10;53.30;;;;;;4972521;28;45433;-63
2022/11/01 12:12:32;;;;;;;1.55;1.30;;;21.10;53.30;;;;;;4972938;28;46236;-64
2022/11/01 12:14:59;;;;;;;1.23;1.08;;;21.10;53.30;;;;;;4976922;28;45475;-64
2022/11/01 12:17:31;;;;;;;1.45;1.20;;;21.10;53.40;;;;;;4978499;28;46980;-63
2022/11/01 12:20:08;;;;;;;1.20;1.10;;;21.10;53.50;;;;;;4979338;28;46076;-64
2022/11/01 12:22:34;;;;;;;1.40;1.30;;;21.10;53.50;;;;;;4977603;28;45451;-63
2022/11/01 12:25:05;;;;;;;1.20;1.10;;;21.10;53.60;;;;;;4974905;28;44816;-64
2022/11/01 12:27:32;;;;;;;1.33;1.20;;;21.10;53.60;;;;;;4977010;28;46196;-64
2022/11/01 12:30:18;;;;;;;1.55;1.20;;;21.10;53.60;;;;;;4977634;28;46288;-63
2022/11/01 12:32:53;;;;;;;0.85;0.85;;;21.10;53.60;;;;;;4978336;28;45342;-62
2022/11/01 12:35:26;;;;;;;1.23;1.13;;;21.10;53.60;;;;;;4980997;28;44858;-64
2022/11/01 12:38:18;;;;;;;2.40;1.35;;;21.10;53.60;;;;;;4983572;28;47139;-64
2022/11/01 12:40:44;;;;;;;1.42;1.02;;;21.10;53.50;;;;;;4976363;28;44976;-64
2022/11/01 12:43:41;;;;;;;1.60;1.10;;;21.10;53.60;;;;;;4976819;28;45355;-64
2022/11/01 12:46:16;;;;;;;1.17;1.08;;;21.10;53.60;;;;;;4998275;28;46136;-63
2022/11/01 12:48:52;;;;;;;0.88;0.88;;;21.10;53.60;;;;;;4977436;28;45897;-63
2022/11/01 12:51:28;;;;;;;1.20;1.10;;;21.10;53.50;;;;;;4970386;28;45593;-63
2022/11/01 12:54:15;;;;;;;1.30;1.05;;;21.10;53.60;;;;;;4980598;28;45466;-64
2022/11/01 12:56:40;;;;;;;0.90;0.90;;;21.10;53.50;;;;;;5004295;28;46318;-64
2022/11/01 12:59:08;;;;;;;0.98;0.95;;;21.10;53.60;;;;;;4973018;28;45865;-64
2022/11/01 13:01:51;;;;;;;1.30;1.20;;;21.10;53.60;;;;;;4977823;28;45650;-63
2022/11/01 13:04:22;;;;;;;1.05;0.77;;;21.10;53.50;;;;;;4979580;28;45449;-64
2022/11/01 13:07:10;;;;;;;1.20;1.10;;;21.10;53.60;;;;;;4977718;28;44751;-64
2022/11/01 13:09:45;;;;;;;1.00;0.90;;;21.10;53.50;;;;;;4980673;28;45706;-64
2022/11/01 13:12:32;;;;;;;1.42;1.20;;;21.10;53.60;;;;;;4976596;28;45215;-64
2022/11/01 13:15:18;;;;;;;1.45;1.23;;;21.10;53.50;;;;;;4975883;28;46584;-64
2022/11/01 13:17:54;;;;;;;2.75;0.90;;;21.10;53.50;;;;;;4995208;28;45449;-63
2022/11/01 13:20:34;;;;;;;1.52;1.20;;;21.00;53.60;;;;;;4964257;28;45999;-63
2022/11/01 13:23:05;;;;;;;1.65;1.23;;;21.00;53.60;;;;;;4977316;28;45272;-64
2022/11/01 13:26:09;;;;;;;0.95;0.95;;;21.00;53.50;;;;;;4984968;28;45832;-64
2022/11/01 13:29:13;;;;;;;1.27;1.10;;;21.00;53.50;;;;;;4973429;28;45289;-63
2022/11/01 13:31:42;;;;;;;1.08;0.98;;;21.00;53.50;;;;;;4975836;28;45805;-63
2022/11/01 13:34:20;;;;;;;1.08;0.98;;;21.00;53.50;;;;;;5011329;28;45343;-64
2022/11/01 13:37:09;;;;;;;1.10;1.00;;;21.00;53.50;;;;;;4981234;28;45272;-64
2022/11/01 13:39:41;;;;;;;2.97;0.90;;;21.00;53.60;;;;;;4975413;28;45327;-63
2022/11/01 13:42:11;;;;;;;1.63;1.10;;;21.00;53.50;;;;;;5009573;28;46220;-64
2022/11/01 13:44:44;;;;;;;1.30;1.20;;;21.00;53.60;;;;;;4980337;28;46408;-63
2022/11/01 13:47:43;;;;;;;1.00;0.82;;;21.10;53.60;;;;;;4978376;28;45515;-64
2022/11/01 13:50:24;;;;;;;1.10;1.00;;;21.00;53.50;;;;;;4977892;28;45530;-64
2022/11/01 13:52:53;;;;;;;1.30;1.10;;;21.00;53.70;;;;;;4975149;28;46040;-64
2022/11/01 13:55:46;;;;;;;1.30;1.20;;;21.00;53.70;;;;;;4977070;28;44966;-63
2022/11/01 13:58:21;;;;;;;1.60;1.25;;;21.00;53.70;;;;;;4990524;28;45496;-64
2022/11/01 14:00:50;;;;;;;0.90;0.90;;;21.00;53.70;;;;;;4986398;28;45481;-64
2022/11/01 14:03:23;;;;;;;1.13;1.02;;;21.00;53.70;;;;;;4981640;28;46024;-64
2022/11/01 14:06:25;;;;;;;1.10;1.00;;;21.00;53.70;;;;;;4979168;28;45530;-65
2022/11/01 14:08:53;;;;;;;1.30;1.20;;;21.00;53.70;;;;;;4979626;28;46215;-63
2022/11/01 14:11:49;;;;;;;1.63;1.33;;;21.00;53.70;;;;;;4962287;28;44887;-62
2022/11/01 14:14:30;;;;;;;1.30;1.20;;;21.00;53.70;;;;;;4976515;28;45890;-62
2022/11/01 14:17:14;;;;;;;1.08;0.98;;;21.00;53.70;;;;;;4998173;28;45542;-64
2022/11/01 14:19:46;;;;;;;2.33;1.08;;;21.00;53.70;;;;;;4971812;28;45660;-62
2022/11/01 14:22:32;;;;;;;1.17;1.08;;;21.00;53.70;;;;;;4976288;28;45636;-62
2022/11/01 14:25:01;;;;;;;1.30;1.20;;;21.00;53.70;;;;;;5007764;28;46244;-63
2022/11/01 14:27:28;;;;;;;1.30;1.20;;;21.00;53.80;;;;;;4962329;28;45802;-63
2022/11/01 14:29:54;;;;;;;1.00;0.90;;;20.90;53.70;;;;;;4974541;28;45647;-63
2022/11/01 14:32:22;;;;;;;1.80;1.25;;;21.00;53.80;;;;;;4983636;28;45532;-63
2022/11/01 14:34:55;;;;;;;1.63;1.13;;;21.00;53.70;;;;;;4973814;28;46206;-63
2022/11/01 14:37:22;;;;;;;1.73;1.20;;;21.00;53.70;;;;;;4957846;28;46434;-63
2022/11/01 14:40:05;;;;;;;1.95;1.27;;;21.00;53.70;;;;;;4965841;28;44710;-63
2022/11/01 14:42:39;;;;;;;1.30;1.20;;;21.00;53.70;;;;;;4988755;28;45522;-63
2022/11/01 14:45:23;;;;;;;1.10;1.00;;;21.00;53.70;;;;;;5000146;28;45718;-64
2022/11/01 14:47:49;;;;;;;2.90;1.30;;;21.00;53.60;;;;;;4972525;28;45808;-64
2022/11/01 14:50:30;;;;;;;1.48;1.20;;;21.00;53.70;;;;;;4974765;28;45656;-63
2022/11/01 14:53:08;;;;;;;1.17;1.08;;;21.00;53.60;;;;;;4974943;28;45712;-63
2022/11/01 14:55:35;;;;;;;0.90;0.90;;;21.00;53.70;;;;;;4973682;28;45130;-63
2022/11/01 14:58:27;;;;;;;1.30;1.10;;;20.90;53.70;;;;;;4973190;28;45672;-63
2022/11/01 15:00:56;;;;;;;1.23;1.00;;;21.00;53.70;;;;;;4973597;28;44872;-64
2022/11/01 15:03:21;;;;;;;1.60;1.30;;;21.00;53.70;;;;;;4962875;28;45427;-63
2022/11/01 15:05:49;;;;;;;1.30;1.15;;;21.00;53.70;;;;;;4976279;28;46416;-63
2022/11/01 15:08:34;;;;;;;1.17;1.08;;;21.00;53.70;;;;;;4976909;28;45625;-63
2022/11/01 15:11:01;;;;;;;1.63;1.20;;;21.00;53.70;;;;;;4974192;28;45868;-63
2022/11/01 15:13:27;;;;;;;1.27;1.00;;;21.00;53.70;;;;;;4973681;28;46590;-63
2022/11/01 15:16:03;;;;;;;0.90;0.90;;;21.00;53.70;;;;;;4991882;28;46275;-63
2022/11/01 15:18:29;;;;;;;1.30;1.20;;;20.90;53.70;;;;;;4980874;28;45740;-64
2022/11/01 15:20:55;;;;;;;1.10;1.00;;;21.00;53.70;;;;;;4972030;28;45469;-63
2022/11/01 15:23:32;;;;;;;0.80;0.80;;;20.90;53.70;;;;;;4975691;28;45659;-64
2022/11/01 15:26:00;;;;;;;1.20;1.10;;;21.00;53.70;;;;;;5006390;28;46138;-64
2022/11/01 15:28:41;;;;;;;1.52;1.08;;;21.00;53.70;;;;;;4977459;28;45572;-63
2022/11/01 15:31:08;;;;;;;1.25;1.15;;;21.00;53.70;;;;;;4972122;28;45281;-63
2022/11/01 15:33:34;;;;;;;1.27;0.90;;;20.90;53.70;;;;;;4982470;28;46200;-63
2022/11/01 15:36:16;;;;;;;1.00;0.95;;;20.90;53.70;;;;;;4973610;28;46041;-63
2022/11/01 15:38:50;;;;;;;0.95;0.82;;;20.90;53.70;;;;;;4974723;28;45512;-63
2022/11/01 15:41:29;;;;;;;1.85;1.30;;;20.90;53.70;;;;;;4974067;28;45402;-64
2022/11/01 15:43:59;;;;;;;1.30;1.20;;;20.90;53.90;;;;;;4978904;28;45408;-63
2022/11/01 15:46:31;;;;;;;1.08;0.90;;;20.90;53.70;;;;;;4956824;28;45347;-64
2022/11/01 15:48:59;;;;;;;1.05;0.95;;;20.90;53.70;;;;;;4965091;28;46348;-64
2022/11/01 15:51:26;;;;;;;1.30;1.10;;;20.90;53.80;;;;;;4972260;28;45763;-63
2022/11/01 15:54:13;;;;;;;1.10;0.80;;;20.90;53.80;;;;;;4974509;28;45819;-63
2022/11/01 15:56:41;;;;;;;1.27;1.15;;;20.90;53.70;;;;;;4976102;28;46772;-63
2022/11/01 15:59:14;;;;;;;1.10;1.00;;;20.90;53.80;;;;;;4976207;28;45287;-63
2022/11/01 16:01:40;;;;;;;;;;;20.90;53.70;;;;;;4972244;28;48461;-63
2022/11/01 16:04:08;;;;;;;0.90;0.90;;;20.90;53.80;;;;;;4973103;28;45267;-63
2022/11/01 16:06:42;;;;;;;1.55;0.98;;;20.80;53.80;;;;;;4974074;28;45400;-63
2022/11/01 16:09:17;;;;;;;0.90;0.90;;;20.80;53.70;;;;;;4972702;28;45395;-63
2022/11/01 16:11:42;;;;;;;1.30;1.10;;;20.80;53.70;;;;;;4978290;28;45300;-63
2022/11/01 16:14:23;;;;;;;1.10;1.00;;;20.80;53.80;;;;;;4974243;28;45043;-64
2022/11/01 16:17:00;;;;;;;1.02;0.93;;;20.80;53.70;;;;;;4973667;28;46036;-63
2022/11/01 16:19:28;;;;;;;0.93;0.93;;;20.90;53.80;;;;;;4974557;28;45097;-63
2022/11/01 16:21:54;;;;;;;1.35;1.20;;;20.80;53.70;;;;;;4973428;28;45506;-63
2022/11/01 16:24:20;;;;;;;1.10;1.00;;;20.80;53.70;;;;;;4974737;28;46058;-64
2022/11/01 16:26:58;;;;;;;1.38;0.98;;;20.90;53.80;;;;;;4968414;28;45685;-63
2022/11/01 16:29:47;;;;;;;1.05;0.98;;;20.80;53.70;;;;;;4979348;28;45640;-63
2022/11/01 16:32:23;;;;;;;0.90;0.90;;;20.80;53.70;;;;;;4979100;28;45082;-63
2022/11/01 16:34:49;;;;;;;1.13;1.00;;;20.80;54.20;;;;;;4978536;28;45498;-62
2022/11/01 16:37:31;;;;;;;0.90;0.80;;;20.80;53.80;;;;;;4978356;28;46430;-63
2022/11/01 16:39:57;;;;;;;1.20;1.10;;;20.80;53.70;;;;;;4979260;28;45705;-63
2022/11/01 16:42:23;;;;;;;1.50;1.00;;;20.80;53.80;;;;;;4978152;28;45418;-63
2022/11/01 16:44:53;;;;;;;1.10;1.00;;;20.80;53.80;;;;;;4977655;28;45320;-63
2022/11/01 16:47:18;;;;;;;1.10;0.95;;;20.80;53.80;;;;;;4968180;28;46017;-64
2022/11/01 16:49:51;;;;;;;1.02;0.90;;;20.80;53.80;;;;;;4960978;28;45363;-63
2022/11/01 16:52:17;;;;;;;0.85;0.85;;;20.80;53.80;;;;;;4973834;28;45733;-64
2022/11/01 16:54:43;;;;;;;0.80;0.80;;;20.80;53.80;;;;;;4977582;28;44949;-63
2022/11/01 16:57:19;;;;;;;0.80;0.80;;;20.80;53.80;;;;;;4975793;28;46815;-64
2022/11/01 16:59:45;;;;;;;1.00;1.00;;;20.80;53.90;;;;;;5000440;28;46270;-63
2022/11/01 17:02:22;;;;;;;1.02;0.93;;;20.80;53.80;;;;;;4978044;28;46107;-64
2022/11/01 17:04:50;;;;;;;1.10;1.00;;;20.80;53.90;;;;;;4979266;28;45657;-63
2022/11/01 17:07:16;;;;;;;1.10;1.00;;;20.80;53.80;;;;;;4969714;28;45342;-63
2022/11/01 17:09:41;;;;;;;0.80;0.80;;;20.80;54.10;;;;;;4977653;28;45551;-63
2022/11/01 17:12:07;;;;;;;1.10;0.95;;;20.80;54.00;;;;;;4978771;28;45660;-64